Date,TemperatureHighF,TemperatureAvgF,TemperatureLowF,DewpointHighF,DewpointAvgF,DewpointLowF,HumidityHigh,HumidityAvg,HumidityLow,PressureMaxIn,PressureMinIn,WindSpeedMaxMPH,WindSpeedAvgMPH,GustSpeedMaxMPH,PrecipitationSumIn
2012-1-1,51.1,39.9,28.9,46.1,36.9,27.1,97,89,74,30.04,29.56,40,12,40,0.22
2012-1-2,30.7,27.5,23.4,27.4,25.1,18.7,96,91,78,30.03,29.84,30,11,30,0.11
2012-1-3,23.4,17.5,9.9,18.7,12.2,7.6,91,80,58,30.32,30.03,23,8,23,0.01
2012-1-4,29.0,22.5,10.9,22.9,15.9,8.5,90,76,62,30.28,29.95,20,7,20,0.00
2012-1-5,38.1,33.2,28.3,30.1,27.7,22.9,90,80,70,30.03,29.81,17,6,17,0.00
2012-1-6,53.9,44.3,35.5,38.7,33.9,26.7,76,67,54,29.81,29.72,24,8,24,0.00
2012-1-7,45.9,41.9,37.4,36.8,33.3,29.3,81,72,56,30.10,29.69,21,6,21,0.00
2012-1-8,37.6,33.0,28.6,32.6,28.2,26.1,92,83,70,30.34,30.10,12,1,12,0.00
2012-1-9,42.6,34.3,25.4,29.0,26.8,23.3,94,75,53,30.32,29.96,13,3,13,0.00
2012-1-10,46.2,35.6,28.8,34.0,29.2,25.8,95,78,58,30.06,29.95,12,2,12,0.00
2012-1-11,43.7,37.6,29.7,40.5,34.2,28.1,97,88,69,29.97,29.47,16,5,16,0.31
2012-1-12,44.6,42.2,31.6,44.3,41.5,30.0,99,97,93,29.47,29.30,29,6,29,0.38
2012-1-13,31.5,20.4,17.3,30.0,17.5,13.4,98,88,76,29.96,29.37,31,15,31,0.05
2012-1-14,23.4,21.0,19.7,19.2,17.9,16.5,93,88,81,30.23,29.96,20,7,20,0.00
2012-1-15,25.9,18.8,6.9,17.8,13.2,5.1,95,79,61,30.52,30.23,9,2,9,0.00
2012-1-16,44.2,32.3,19.6,40.6,26.4,15.2,97,79,58,30.45,29.92,22,9,22,0.02
2012-1-17,56.4,45.7,30.7,51.4,42.9,30.0,99,90,72,29.92,29.42,36,12,36,0.57
2012-1-18,30.9,23.8,16.7,30.4,19.9,13.2,98,85,68,30.22,29.88,20,5,20,0.10
2012-1-19,28.6,23.1,16.8,27.8,19.0,10.9,97,84,72,30.13,29.82,22,9,22,0.08
2012-1-20,21.9,17.7,11.0,17.3,12.1,8.4,93,79,61,30.33,30.07,12,3,12,0.00
2012-1-21,26.9,23.3,19.0,23.0,20.1,17.3,93,87,79,30.32,29.96,12,3,12,0.24
2012-1-22,39.4,28.3,14.5,32.4,23.4,12.9,96,83,67,30.32,30.03,18,7,18,0.00
2012-1-23,54.8,43.4,36.2,51.2,40.0,31.9,99,88,75,30.03,29.56,32,12,32,0.35
2012-1-24,37.5,34.4,32.0,32.5,30.0,26.8,89,84,80,30.33,29.89,23,9,23,0.00
2012-1-25,33.2,32.0,30.7,30.3,27.6,25.9,93,84,79,30.38,30.16,12,2,12,0.00
2012-1-26,52.5,37.2,31.5,52.5,36.7,30.3,100,98,93,30.19,29.45,12,2,12,0.57
2012-1-27,53.3,38.3,32.7,53.3,37.3,30.3,100,96,89,30.01,29.33,21,7,21,0.56
2012-1-28,37.1,33.4,30.0,34.6,28.0,16.9,98,82,52,30.13,29.84,37,11,37,0.04
2012-1-29,39.5,31.6,26.5,31.2,23.7,18.3,94,73,54,30.22,29.90,31,12,31,0.01
2012-1-30,43.3,30.1,18.0,31.5,22.7,15.4,94,75,61,30.32,30.02,21,7,21,0.02
2012-1-31,59.9,50.7,42.8,46.2,36.4,30.6,76,58,47,30.08,29.92,29,11,29,0.00
2012-2-1,54.5,47.5,37.7,47.6,42.2,34.8,94,82,66,30.08,29.88,27,8,27,0.02
2012-2-2,38.3,35.2,33.8,34.8,32.8,29.1,97,91,81,30.42,30.04,12,2,12,0.02
2012-2-3,46.0,35.3,26.9,34.7,30.2,25.7,97,82,60,30.53,30.35,9,2,9,0.01
2012-2-4,39.3,34.9,31.7,33.9,31.8,28.8,96,88,78,30.36,30.12,10,1,10,0.00
2012-2-5,43.2,33.1,25.0,32.1,28.4,24.0,99,84,59,30.24,30.12,10,2,10,0.00
2012-2-6,48.4,36.8,28.4,34.4,30.1,26.5,94,78,54,30.22,30.05,18,5,18,0.01
2012-2-7,36.4,34.3,32.1,34.4,30.9,28.9,94,88,84,30.29,30.09,10,3,10,0.00
2012-2-8,32.7,29.4,22.5,28.9,25.3,19.7,94,85,74,30.30,30.19,8,3,8,0.00
2012-2-9,38.6,28.6,20.7,26.4,22.1,19.1,97,78,50,30.28,30.17,20,6,20,0.00
2012-2-10,32.1,29.3,27.1,28.2,24.8,21.3,95,83,71,30.18,29.88,20,5,20,0.00
2012-2-11,28.6,22.2,17.1,27.8,19.5,13.0,97,89,80,30.16,29.75,22,8,22,0.20
2012-2-12,24.6,20.5,16.7,21.1,16.9,13.5,94,86,71,30.17,30.10,28,9,28,0.02
2012-2-13,37.1,26.2,14.9,20.9,16.7,12.5,91,69,43,30.19,30.06,18,6,18,0.00
2012-2-14,36.9,33.0,29.6,33.6,29.2,19.2,98,87,60,30.06,29.90,16,5,16,0.08
2012-2-15,41.5,35.6,32.8,33.7,31.3,28.3,98,85,70,30.28,30.04,15,4,15,0.00
2012-2-16,46.3,41.4,36.9,45.9,39.9,32.8,100,94,83,30.16,29.91,18,6,18,0.28
2012-2-17,42.7,35.1,29.4,36.7,29.3,23.7,98,80,53,30.13,30.05,22,5,22,0.00
2012-2-18,43.9,35.2,30.3,33.4,27.6,24.6,86,74,54,30.19,29.95,27,7,27,0.00
2012-2-19,34.8,30.0,28.3,25.0,23.0,21.1,82,75,64,30.17,30.05,16,5,16,0.00
2012-2-20,42.4,31.8,26.6,26.4,22.6,20.7,82,69,46,30.38,30.15,13,4,13,0.00
2012-2-21,45.4,38.1,31.7,40.0,30.2,20.9,97,74,49,30.22,29.74,25,9,25,0.11
2012-2-22,54.1,43.4,36.1,39.9,36.0,31.8,96,77,44,29.77,29.39,25,8,25,0.04
2012-2-23,46.9,38.7,32.1,38.9,34.4,30.0,100,86,53,29.64,29.42,14,2,14,0.58
2012-2-24,49.2,39.3,31.5,45.6,36.2,29.4,99,89,60,29.70,29.30,40,12,40,0.03
2012-2-25,32.6,29.7,27.9,30.2,27.7,25.9,97,92,86,30.31,29.69,26,11,26,0.12
2012-2-26,41.7,33.4,27.8,27.4,23.9,20.9,90,69,50,30.47,30.24,15,6,15,0.00
2012-2-27,54.9,40.4,30.0,33.5,26.5,21.6,82,59,41,30.45,30.10,34,10,34,0.00
2012-2-28,43.4,32.6,23.9,30.0,25.4,21.5,95,77,49,30.50,30.33,9,2,9,0.00
2012-2-29,53.1,45.4,36.6,51.6,43.2,28.6,99,93,56,30.33,29.48,16,4,16,0.99
2012-3-1,49.6,40.4,36.5,47.4,35.1,31.6,100,82,67,29.92,29.51,28,8,28,0.00
2012-3-2,55.9,43.3,32.1,51.5,38.8,30.3,98,85,57,29.92,29.33,23,6,23,0.62
2012-3-3,55.0,37.7,32.8,48.8,29.1,24.1,82,71,64,29.76,29.34,40,17,40,0.00
2012-3-4,34.8,30.9,27.2,29.4,25.8,24.0,95,81,72,29.89,29.73,22,7,22,0.02
2012-3-5,29.2,26.1,21.1,25.1,21.2,18.5,94,82,67,30.49,29.88,20,5,20,0.01
2012-3-6,48.3,35.2,20.6,27.4,23.1,17.8,91,64,40,30.54,30.26,26,9,26,0.00
2012-3-7,66.0,55.8,45.3,41.5,34.6,24.9,53,45,35,30.32,30.09,33,11,33,0.00
2012-3-8,59.3,51.3,34.7,53.6,44.2,29.0,97,78,52,30.12,29.82,32,12,32,0.26
2012-3-9,38.2,33.3,27.5,32.7,26.1,18.8,94,75,53,30.48,30.12,31,9,31,0.03
2012-3-10,44.7,33.4,21.2,23.2,19.5,16.3,85,58,36,30.59,30.37,20,6,20,0.00
2012-3-11,66.1,49.6,34.0,36.1,28.6,22.7,64,46,28,30.43,30.26,20,6,20,0.00
2012-3-12,56.8,51.8,42.8,54.3,43.7,31.2,98,77,44,30.26,29.93,22,7,22,0.33
2012-3-13,69.0,59.6,50.5,56.7,51.2,40.7,98,76,46,30.07,29.90,23,8,23,0.19
2012-3-14,73.9,55.4,37.3,50.6,42.1,34.6,91,64,35,30.20,30.07,15,3,15,0.00
2012-3-15,73.8,61.6,54.6,57.5,52.8,47.1,95,74,51,30.16,30.00,20,6,20,0.16
2012-3-16,70.7,61.1,54.3,61.3,57.3,53.4,99,88,70,30.15,29.96,15,3,15,0.04
2012-3-17,77.5,61.9,47.7,62.0,52.8,45.1,100,76,33,30.22,30.10,15,3,15,0.01
2012-3-18,74.2,66.4,60.5,60.8,55.9,47.2,92,69,53,30.15,30.03,23,6,23,0.01
2012-3-19,73.2,62.8,56.7,61.9,58.3,56.1,100,86,61,30.12,30.05,12,2,12,0.05
2012-3-20,80.5,66.1,54.9,64.0,58.0,53.8,98,77,51,30.18,30.08,8,2,8,0.00
2012-3-21,80.6,68.6,57.6,61.4,56.7,54.2,91,68,42,30.20,30.07,13,4,13,0.00
2012-3-22,81.3,66.2,52.2,63.4,55.4,49.3,100,72,34,30.15,30.03,12,2,12,0.00
2012-3-23,81.7,66.7,52.0,61.3,54.4,49.3,95,69,34,30.06,29.81,29,3,29,0.00
2012-3-24,68.7,61.5,54.8,63.4,59.2,53.4,100,93,72,29.86,29.74,15,3,15,0.60
2012-3-25,55.7,52.0,50.1,54.2,51.5,49.8,100,98,93,29.87,29.78,12,3,12,0.01
2012-3-27,53.5,50.9,48.0,26.4,23.7,19.1,41,34,28,30.28,29.99,14,8,14,0.00
2012-3-28,73.8,59.6,49.4,56.4,40.0,24.8,74,50,30,29.99,29.63,36,11,36,0.00
2012-3-29,49.3,41.2,37.0,40.7,34.3,30.8,81,76,68,30.12,29.85,18,6,18,0.00
2012-3-30,54.2,42.6,29.4,48.8,36.7,27.5,95,80,56,30.12,29.68,15,4,15,0.13
2012-3-31,43.8,39.8,37.0,42.2,37.6,34.8,98,92,83,29.96,29.73,13,4,13,0.00
2012-4-1,57.3,44.8,36.5,46.9,39.9,34.2,95,84,63,29.94,29.65,20,4,20,0.02
2012-4-2,56.3,44.9,35.8,39.9,35.8,24.8,95,73,38,30.03,29.78,14,4,14,0.00
2012-4-3,63.6,46.5,30.8,43.0,33.4,28.3,94,64,31,30.04,29.82,18,2,18,0.00
2012-4-4,59.1,49.2,39.1,42.3,37.0,28.9,86,64,39,29.89,29.80,17,5,17,0.00
2012-4-5,50.3,40.4,31.0,38.4,33.1,29.5,99,77,53,30.05,29.87,16,4,16,0.00
2012-4-6,53.9,41.6,29.8,34.3,29.5,22.3,98,67,31,30.22,30.05,18,4,18,0.00
2012-4-7,59.4,43.5,28.4,35.9,28.3,19.3,98,61,23,30.32,30.15,17,2,17,0.01
2012-4-8,58.1,48.0,36.3,45.5,33.2,24.3,82,58,31,30.15,29.94,24,6,24,0.00
2012-4-9,58.9,49.8,39.9,41.2,34.6,27.1,83,57,33,29.98,29.75,33,9,33,0.01
2012-4-10,44.7,38.7,33.9,37.1,32.8,26.7,97,80,51,29.95,29.76,18,6,18,0.23
2012-4-11,46.8,39.0,33.4,38.7,35.4,32.6,100,88,66,30.17,29.93,20,5,20,0.09
2012-4-12,55.7,42.6,29.8,38.5,33.0,29.0,99,72,39,30.25,30.14,12,2,12,0.00
2012-4-13,63.6,46.9,31.8,39.8,33.6,29.3,93,64,29,30.29,30.17,12,2,12,0.00
2012-4-14,58.0,49.8,38.5,53.7,42.6,33.2,98,78,48,30.18,29.98,21,5,21,0.02
2012-4-15,79.3,65.5,54.3,62.3,56.7,53.8,99,76,48,29.98,29.85,28,8,28,0.06
2012-4-16,79.7,69.6,56.1,63.6,55.3,43.2,79,61,43,30.09,29.75,37,13,37,0.00
2012-4-17,59.9,51.0,40.0,44.3,40.2,33.8,94,68,46,30.31,30.09,20,4,20,0.00
2012-4-18,63.5,48.5,34.6,42.4,36.6,31.8,95,67,34,30.31,30.03,12,2,12,0.00
2012-4-19,71.3,57.5,41.9,54.4,47.1,38.0,94,70,46,30.05,29.90,14,3,14,0.00
2012-4-20,77.3,64.6,50.9,54.8,50.0,46.3,85,61,40,29.90,29.66,21,7,21,0.00
2012-4-21,53.5,43.0,40.3,49.4,41.9,39.3,100,96,85,29.95,29.70,12,4,12,0.39
2012-4-22,46.0,41.8,39.3,41.4,38.5,36.6,96,88,77,29.94,29.82,20,6,20,0.01
2012-4-23,34.3,33.9,33.5,33.3,31.9,31.4,98,92,91,29.52,29.51,2,0,2,0.00
2012-4-24,54.1,43.4,33.5,35.8,30.3,24.1,94,63,32,29.61,29.44,26,8,26,0.00
2012-4-26,59.7,51.5,42.9,56.7,46.9,37.7,98,85,66,29.92,29.59,18,6,18,0.44
2012-4-27,43.5,43.4,43.4,38.1,37.0,36.7,81,78,77,29.93,29.92,17,5,17,0.00
2012-4-28,45.8,42.3,37.2,37.8,34.1,29.2,86,73,55,30.28,29.93,10,3,10,0.03
2012-4-29,61.3,44.8,27.6,37.1,30.8,23.5,97,63,26,30.33,30.21,15,2,15,0.00
2012-4-30,69.7,48.7,35.4,53.3,33.3,25.3,89,57,38,30.25,29.97,15,4,15,0.01
2012-5-2,82.5,76.9,71.1,67.5,65.1,64.2,80,67,58,29.96,29.88,24,5,24,0.05
2012-5-3,87.5,76.3,64.1,71.4,65.8,62.6,97,72,48,30.01,29.85,21,4,21,0.00
2012-5-4,83.3,70.0,60.0,69.0,63.4,58.4,99,81,49,29.95,29.84,20,4,24,1.47
2012-5-5,75.1,63.3,50.8,66.2,58.8,46.6,100,86,65,30.02,29.86,15,4,15,0.13
2012-5-6,73.9,59.4,44.7,57.0,48.1,39.4,99,70,36,30.04,29.94,14,2,14,0.00
2012-5-7,77.7,62.1,51.3,69.1,58.2,46.3,100,88,69,29.97,29.73,22,2,22,1.61
2012-5-8,64.2,60.8,53.2,62.9,59.8,52.8,100,96,84,29.80,29.71,9,2,11,0.25
2012-5-9,67.2,56.9,49.3,56.7,52.3,46.1,100,86,52,29.79,29.67,25,2,25,0.13
2012-5-10,60.2,53.7,43.4,51.6,45.0,37.6,99,74,47,29.98,29.67,20,4,20,0.00
2012-5-11,70.1,55.1,40.3,49.7,43.2,39.3,97,69,36,30.18,29.98,13,3,13,0.00
2012-5-12,74.3,61.1,46.5,52.1,47.0,42.1,91,63,35,30.25,30.15,15,3,15,0.00
2012-5-13,74.9,61.2,51.4,55.9,52.4,48.1,94,75,41,30.17,30.08,13,2,13,0.00
2012-5-14,72.9,62.8,54.1,60.1,56.4,53.0,98,81,59,30.08,29.95,12,2,12,0.00
2012-5-15,78.3,64.2,51.2,62.7,53.2,41.8,100,73,29,29.98,29.87,12,2,12,0.00
2012-5-16,72.7,58.2,42.1,57.9,49.5,37.6,95,74,54,30.09,29.83,17,4,17,0.00
2012-5-17,65.0,51.1,35.5,46.6,39.7,34.3,100,69,36,30.20,30.09,15,2,15,0.00
2012-5-18,79.8,59.6,38.7,55.2,45.6,37.1,99,65,27,30.16,30.05,12,1,12,0.00
2012-5-19,85.2,66.9,48.0,60.8,51.9,46.1,95,64,30,30.15,30.07,10,1,10,0.00
2012-5-20,87.8,70.9,53.0,65.3,56.8,52.1,99,66,31,30.16,30.01,10,2,10,0.00
2012-5-21,83.7,71.3,57.6,65.1,58.7,52.6,91,66,42,30.02,29.83,13,2,13,0.00
2012-5-22,71.8,62.5,55.6,64.0,58.7,54.4,97,88,71,29.91,29.84,12,2,12,0.00
2012-5-23,81.3,65.3,51.5,67.9,59.2,51.2,100,83,53,29.94,29.85,8,1,8,0.00
2012-5-24,83.2,71.9,61.3,67.5,63.3,60.1,97,76,52,29.95,29.84,20,5,20,0.00
2012-5-25,87.7,76.8,66.0,73.4,67.0,62.8,90,73,54,30.03,29.90,17,6,17,0.00
2012-5-26,83.5,74.5,65.5,68.8,63.1,56.2,96,70,42,30.14,30.01,9,2,9,0.00
2012-5-27,88.7,71.2,59.7,74.8,64.7,57.2,97,81,58,30.11,29.96,23,2,23,0.04
2012-5-28,91.0,78.3,66.1,76.2,70.3,65.4,99,79,52,29.97,29.78,14,4,14,0.00
2012-5-29,81.3,73.6,63.4,74.0,68.8,62.6,98,85,68,29.79,29.69,18,3,18,0.29
2012-5-30,78.0,66.5,54.6,62.8,57.0,50.4,100,74,43,29.82,29.73,14,2,14,0.01
2012-5-31,73.2,61.7,51.5,60.2,54.2,49.8,99,78,52,29.93,29.78,12,3,12,0.00
2012-6-1,65.9,60.4,54.3,64.9,57.9,50.8,99,92,73,29.78,29.49,24,6,24,1.35
2012-6-2,66.8,57.7,50.0,57.9,50.7,44.8,94,78,55,29.76,29.67,20,6,20,0.04
2012-6-3,76.2,63.6,54.7,60.4,53.3,48.1,88,71,40,29.77,29.66,22,5,22,0.01
2012-6-4,68.3,59.5,50.6,58.1,53.3,49.5,98,81,60,29.83,29.70,13,3,13,0.00
2012-6-5,64.8,56.9,49.7,57.9,53.2,48.6,98,88,68,29.95,29.83,12,2,12,0.03
2012-6-6,72.9,60.3,46.0,59.3,52.5,45.7,100,78,52,30.02,29.95,12,2,12,0.01
2012-6-7,68.2,68.2,68.2,54.7,54.7,54.7,62,62,62,29.97,29.97,0,0,0,0.01
2012-6-8,80.3,67.4,51.8,62.4,54.7,50.0,97,66,36,30.01,29.91,8,0,19,0.01
2012-6-9,86.5,72.7,58.3,62.9,56.7,50.9,79,59,38,29.95,29.88,16,3,16,0.00
2012-6-10,88.8,76.0,61.1,68.4,61.1,56.5,88,62,40,30.04,29.94,14,2,14,0.00
2012-6-11,79.4,72.2,66.4,70.5,65.6,60.4,99,80,60,30.01,29.87,18,3,18,0.07
2012-6-12,83.2,73.3,64.2,74.9,67.0,56.6,100,83,46,29.97,29.78,15,4,15,0.25
2012-6-13,71.3,61.4,50.3,57.4,51.7,46.3,90,72,52,30.14,29.97,12,4,12,0.00
2012-6-14,80.5,64.3,49.4,63.2,54.2,47.3,97,73,45,30.20,30.11,12,2,12,0.00
2012-6-15,83.8,71.5,59.1,67.3,60.4,55.5,88,70,47,30.20,30.12,14,3,14,0.00
2012-6-16,84.3,72.9,60.6,68.0,61.6,56.3,87,69,49,30.22,30.03,13,4,13,0.00
2012-6-17,79.5,70.2,64.5,71.2,64.0,57.8,98,81,68,30.04,29.83,18,6,18,0.33
2012-6-18,83.5,72.6,65.6,73.9,68.3,64.8,100,87,64,29.93,29.84,16,4,16,0.15
2012-6-19,90.2,78.2,66.7,74.3,68.4,64.0,94,74,49,30.04,29.93,17,4,17,0.00
2012-6-20,91.1,80.2,67.1,73.6,68.6,65.2,95,70,46,30.10,29.95,13,3,13,0.00
2012-6-21,90.9,80.0,69.2,72.4,67.9,64.4,93,69,44,29.97,29.77,20,4,20,0.00
2012-6-22,82.7,73.3,62.1,67.9,63.6,57.0,98,74,48,29.91,29.82,12,2,12,0.00
2012-6-23,80.1,68.2,56.2,63.1,57.5,52.8,100,72,43,30.03,29.91,12,2,12,0.00
2012-6-24,82.7,69.6,55.9,68.4,59.3,52.9,94,72,43,30.04,29.80,10,1,10,0.00
2012-6-25,71.2,65.7,57.8,64.9,57.6,49.1,98,77,53,29.94,29.78,20,5,20,0.24
2012-6-26,76.7,69.5,53.4,60.4,55.5,52.2,99,63,46,29.98,29.89,15,5,15,0.00
2012-6-27,84.1,69.5,53.3,62.5,57.3,52.5,99,69,35,29.98,29.84,7,1,15,0.00
2012-6-28,93.5,82.6,62.8,73.9,66.0,55.4,81,59,42,29.86,29.64,16,4,16,0.00
2012-6-29,94.1,80.9,68.3,75.8,69.2,57.9,96,70,37,29.79,29.62,15,2,15,0.00
2012-6-30,89.5,74.9,61.9,68.0,63.8,59.1,96,71,44,29.86,29.74,13,3,13,0.00
2012-7-1,90.8,77.7,65.0,67.2,64.7,60.1,98,68,38,29.96,29.77,22,2,22,0.19
2012-7-2,90.0,74.5,61.6,71.6,64.2,58.6,100,74,38,30.00,29.91,12,2,12,0.01
2012-7-3,81.1,71.3,62.2,74.1,66.9,59.9,99,87,67,29.98,29.81,16,2,16,1.88
2012-7-4,94.5,78.8,66.9,79.6,72.4,66.4,100,83,53,29.88,29.76,18,3,19,0.50
2012-7-5,83.3,75.4,68.7,74.9,70.9,67.5,100,87,65,29.91,29.82,12,1,12,0.11
2012-7-6,96.0,80.5,67.7,81.0,73.0,67.3,100,80,49,29.93,29.87,11,1,11,0.01
2012-7-7,96.3,82.0,67.7,81.9,73.9,66.8,99,79,55,29.91,29.80,16,2,16,0.00
2012-7-8,85.1,77.1,69.0,71.8,68.5,62.6,97,77,50,29.93,29.85,12,3,12,0.00
2012-7-9,84.5,72.1,59.7,66.5,61.4,58.1,99,72,41,29.99,29.92,12,2,12,0.00
2012-7-10,83.6,70.8,58.4,68.5,59.7,52.5,96,71,38,30.07,29.97,12,2,12,0.00
2012-7-11,87.3,71.7,55.9,66.5,58.9,54.6,99,68,39,30.11,30.04,9,2,9,0.00
2012-7-12,91.0,74.7,60.2,70.0,63.4,56.3,97,70,41,30.11,30.03,16,2,16,0.00
2012-7-13,84.9,74.1,65.7,67.0,62.1,58.5,93,68,45,30.15,30.08,19,3,19,0.00
2012-7-14,80.4,72.4,63.9,72.7,66.9,58.9,91,83,75,30.11,30.01,14,2,14,0.00
2012-7-15,82.4,74.3,69.7,74.1,70.7,67.0,98,89,68,30.05,29.93,20,3,20,0.11
2012-7-16,90.8,77.7,67.6,74.8,67.8,59.8,100,76,36,29.95,29.84,12,2,12,0.01
2012-7-17,96.9,82.7,68.2,75.5,69.6,63.0,86,67,42,29.86,29.73,20,4,20,0.00
2012-7-18,91.5,81.4,71.7,77.3,72.7,68.5,93,76,54,29.89,29.75,15,2,15,0.00
2012-7-19,81.2,72.4,66.4,74.5,70.4,65.8,100,94,76,29.93,29.81,15,1,15,1.06
2012-7-20,70.2,68.2,66.8,69.6,66.2,64.3,99,93,85,29.99,29.83,14,2,14,0.00
2012-7-21,80.9,69.5,59.5,68.1,64.0,59.2,100,84,55,30.07,29.98,9,1,9,0.00
2012-7-22,88.2,76.3,65.0,72.0,67.2,64.1,98,76,51,30.09,30.00,13,3,13,0.00
2012-7-23,89.8,79.2,71.5,74.1,68.8,65.7,86,72,50,30.03,29.78,23,5,23,0.00
2012-7-24,84.3,76.1,63.1,74.6,68.1,55.6,97,77,56,29.90,29.77,15,3,15,0.00
2012-7-25,86.1,71.8,55.0,63.5,58.5,54.4,100,67,38,29.96,29.68,13,3,13,0.00
2012-7-26,91.1,77.2,70.2,77.5,72.5,63.5,100,86,62,29.69,29.56,20,4,20,0.47
2012-7-27,84.7,74.6,66.5,76.5,71.2,65.3,100,90,63,29.88,29.66,15,2,15,1.45
2012-7-28,77.9,70.0,65.7,71.9,68.4,65.2,100,95,78,30.01,29.81,15,1,15,0.66
2012-7-29,81.8,70.5,60.8,71.7,64.1,54.4,100,82,47,30.05,29.98,10,1,10,0.00
2012-7-30,87.0,72.1,58.8,70.4,63.4,56.8,97,77,47,30.03,29.91,12,1,12,0.00
2012-7-31,87.8,75.0,65.0,72.7,66.8,63.5,98,78,51,29.91,29.78,12,2,12,0.00
2012-8-1,85.0,72.7,63.5,71.0,64.7,60.1,100,78,49,29.87,29.81,12,2,12,0.00
2012-8-2,87.0,71.7,57.8,68.1,62.4,55.8,100,76,39,29.91,29.84,8,1,8,0.00
2012-8-3,92.8,77.2,61.8,73.7,67.1,60.0,98,74,43,29.95,29.87,9,2,9,0.00
2012-8-4,89.8,80.8,70.8,75.2,71.9,69.2,96,76,58,30.00,29.89,20,5,20,0.00
2012-8-5,82.1,75.0,67.5,76.6,71.9,66.3,99,91,76,30.01,29.88,27,4,27,0.50
2012-8-6,81.2,69.8,59.6,66.3,62.0,57.3,100,79,48,30.12,29.99,9,1,9,0.01
2012-8-7,87.0,70.5,55.9,66.8,60.5,55.3,100,74,38,30.01,29.89,13,2,13,0.00
2012-8-8,87.5,72.1,59.6,72.1,65.3,58.6,99,81,53,29.94,29.86,15,2,15,0.00
2012-8-9,82.0,70.1,61.3,73.6,66.5,61.0,100,89,68,29.92,29.74,10,1,10,0.02
2012-8-10,72.8,67.1,62.8,69.6,65.6,62.1,100,95,77,29.74,29.63,21,2,21,1.03
2012-8-11,66.3,62.9,59.0,62.5,59.9,56.9,98,90,83,29.91,29.70,20,5,20,0.01
2012-8-12,77.8,67.4,60.9,66.2,62.3,59.9,99,85,60,29.99,29.90,13,3,13,0.00
2012-8-13,81.1,68.3,59.3,67.0,62.0,58.4,99,82,52,30.02,29.90,12,1,12,0.07
2012-8-14,74.9,67.0,62.0,69.4,65.1,61.6,99,94,80,29.93,29.80,9,1,9,0.28
2012-8-15,79.8,68.1,60.0,67.7,62.8,60.0,100,85,54,29.94,29.86,8,1,8,0.01
2012-8-16,84.5,71.2,58.4,69.7,63.6,58.1,100,79,53,29.97,29.78,14,3,14,0.00
2012-8-17,77.5,69.7,58.3,67.5,63.1,56.6,96,80,60,29.90,29.77,15,2,15,0.01
2012-8-18,77.3,64.0,53.7,60.8,55.4,48.6,100,77,41,29.98,29.89,9,1,9,0.01
2012-8-19,79.1,64.5,52.0,62.9,55.8,48.6,93,76,47,29.94,29.83,10,1,10,0.00
2012-8-20,75.8,62.6,55.8,64.3,59.0,55.4,100,89,57,29.98,29.84,12,1,12,0.11
2012-8-21,78.2,61.5,51.8,63.2,56.9,51.5,100,87,48,30.09,29.98,13,1,13,0.48
2012-8-22,81.1,64.5,52.5,65.2,58.2,52.5,100,83,47,30.15,30.07,7,1,7,0.01
2012-8-23,85.3,68.3,54.4,65.4,59.5,53.9,100,77,43,30.15,30.07,10,1,10,0.00
2012-8-24,87.4,71.6,57.5,67.6,61.6,56.7,99,74,42,30.14,30.05,9,1,9,0.00
2012-8-25,87.7,74.9,64.3,69.9,63.7,59.3,91,70,39,30.15,30.07,12,4,12,0.00
2012-8-26,85.3,72.1,59.6,70.2,64.1,57.8,96,77,52,30.18,30.03,15,3,15,0.00
2012-8-27,72.3,69.4,65.1,71.6,67.5,63.6,100,94,82,30.03,29.88,12,2,12,1.14
2012-8-28,78.7,70.3,60.7,69.2,65.3,59.4,100,86,55,30.02,29.93,13,2,13,0.00
2012-8-29,76.4,64.5,55.8,62.4,59.2,55.4,100,85,53,30.07,29.99,13,2,13,0.00
2012-9-4,71.2,70.3,69.7,70.3,69.4,68.8,97,97,97,29.81,29.79,5,1,5,0.30
2012-9-5,82.5,71.3,65.5,71.1,67.5,64.9,98,89,63,29.88,29.78,10,1,10,9.60
2012-9-6,87.7,70.4,65.2,71.2,66.4,63.7,97,88,52,29.88,29.80,12,1,12,0.00
2012-9-7,84.7,70.2,61.9,72.7,65.8,61.0,99,87,61,29.88,29.66,16,2,16,0.07
2012-9-8,69.8,63.4,55.4,66.1,59.5,53.2,98,88,61,29.81,29.49,23,3,23,0.78
2012-9-9,70.3,59.9,51.7,59.0,53.2,49.1,98,80,48,30.04,29.81,14,2,14,0.00
2012-9-10,71.2,56.6,45.2,56.8,49.6,44.4,100,80,44,30.19,30.04,13,1,13,0.00
2012-9-11,76.7,60.1,44.3,56.9,50.8,43.3,99,75,39,30.29,30.19,13,2,13,0.01
2012-9-12,81.9,64.4,49.2,62.4,54.4,47.9,98,74,40,30.30,30.20,13,2,13,0.00
2012-9-13,84.1,67.3,54.3,66.4,58.6,53.2,98,77,41,30.29,30.17,10,2,10,0.00
2012-9-14,79.0,62.5,51.9,65.8,58.6,51.1,98,88,58,30.24,30.10,17,2,17,0.17
2012-9-15,70.2,57.1,48.5,58.9,51.4,46.3,99,84,46,30.27,30.17,12,1,12,0.36
2012-9-16,74.8,58.3,43.7,55.8,49.7,42.7,99,76,42,30.18,30.05,12,2,12,0.00
2012-9-17,75.1,61.0,45.7,59.4,51.6,44.4,98,74,44,30.06,29.78,13,2,13,0.00
2012-9-18,66.8,60.7,51.7,64.5,58.4,49.1,98,92,75,29.88,29.53,20,3,20,0.46
2012-9-19,64.3,51.8,42.3,49.3,44.2,39.8,97,78,42,30.15,29.88,12,2,12,0.01
2012-9-20,73.8,59.5,44.1,53.7,46.4,41.1,92,64,39,30.11,29.89,20,5,20,0.00
2012-9-21,71.8,64.1,58.2,59.0,52.1,43.3,85,67,40,29.92,29.70,16,4,16,0.01
2012-9-22,66.3,54.5,47.3,56.8,51.7,46.2,100,91,57,30.04,29.66,16,3,16,0.33
2012-9-23,58.1,49.1,42.2,50.4,45.0,41.4,98,87,64,30.20,30.03,13,2,13,0.01
2012-9-24,61.5,51.1,42.5,45.8,41.6,37.3,97,73,42,30.23,30.03,17,4,18,0.00
2012-9-25,67.4,56.2,48.1,55.4,47.1,40.4,95,72,55,30.07,29.93,18,6,18,0.06
2012-9-26,63.4,62.0,57.2,62.8,61.1,55.5,100,97,94,30.07,29.96,12,3,12,0.78
2012-9-27,61.7,56.0,49.9,61.1,53.9,49.4,99,93,79,30.19,30.07,7,1,7,0.04
2012-9-28,63.9,53.9,43.7,54.4,49.0,42.2,99,85,53,30.12,30.05,12,1,12,0.01
2012-9-29,65.1,52.4,43.3,53.5,47.3,41.9,98,84,54,30.08,29.92,7,1,7,0.01
2012-9-30,64.2,53.2,44.9,53.2,48.1,43.4,99,84,54,29.92,29.84,12,1,12,0.01
2012-10-1,66.8,52.1,41.2,54.9,47.2,40.4,99,85,52,29.95,29.81,7,1,7,0.04
2012-10-2,71.5,62.7,54.4,67.2,61.0,52.1,100,94,84,29.84,29.77,7,1,7,0.01
2012-10-3,74.5,65.6,56.4,65.4,61.7,54.5,99,88,57,30.11,29.84,21,3,21,1.22
2012-10-4,74.7,63.1,54.7,58.9,55.5,53.6,97,78,50,30.14,30.06,22,4,22,0.00
2012-10-5,68.1,62.0,52.3,60.9,57.2,50.3,94,85,73,30.06,29.89,17,3,17,0.08
2012-10-6,55.8,49.2,45.3,50.6,43.0,38.1,97,80,52,30.08,29.85,20,4,20,0.22
2012-10-7,47.5,43.4,38.8,43.2,40.1,37.5,97,88,77,30.16,30.04,11,2,11,0.09
2012-10-8,51.0,41.9,35.8,42.1,37.1,34.8,98,85,57,30.26,30.15,12,3,12,0.01
2012-10-9,59.7,45.6,31.7,43.0,37.4,30.4,98,76,43,30.21,29.98,15,3,15,0.01
2012-10-10,54.0,47.5,43.3,48.1,40.6,32.8,96,78,61,30.14,29.86,21,7,21,0.03
2012-10-11,57.6,46.2,34.3,37.3,34.0,31.0,91,64,39,30.27,30.10,20,5,20,0.00
2012-10-12,52.9,45.6,35.6,42.5,37.7,31.8,88,75,49,30.43,30.12,16,3,16,0.00
2012-10-13,61.9,47.7,30.3,52.5,38.4,27.6,91,72,49,30.42,30.00,16,5,16,0.07
2012-10-14,74.3,65.3,56.8,61.8,58.3,52.5,97,79,59,30.02,29.60,25,8,25,0.54
2012-10-15,65.3,54.4,48.9,60.0,49.5,45.3,96,84,77,29.86,29.55,27,7,27,0.02
2012-10-16,57.7,49.6,44.9,45.9,43.1,41.0,94,80,55,29.97,29.84,13,2,13,0.01
2012-10-17,71.0,57.1,46.0,51.4,45.9,40.9,83,67,48,29.88,29.69,14,5,14,0.00
2012-10-18,65.3,55.1,46.7,51.0,46.7,43.1,94,74,56,29.78,29.57,25,6,28,0.04
2012-10-19,63.6,52.5,44.0,50.7,44.5,37.7,99,78,44,29.75,29.57,11,3,20,0.04
2012-10-20,52.6,48.4,45.0,46.0,44.4,41.9,96,86,70,29.91,29.65,15,4,28,0.03
2012-10-21,60.7,49.2,40.4,47.4,43.0,38.8,97,81,51,30.13,29.91,9,1,15,0.00
2012-10-22,74.2,55.1,36.9,55.8,47.1,36.1,99,77,50,30.16,30.01,9,1,13,0.00
2012-10-23,67.7,62.5,60.1,62.9,57.5,53.9,100,85,65,30.03,29.96,8,2,14,0.28
2012-10-24,77.4,64.1,56.5,61.9,58.1,55.6,100,83,53,30.08,29.98,9,2,14,0.02
2012-10-25,81.8,67.8,54.2,56.8,52.5,49.0,89,61,33,30.06,29.93,14,2,23,0.00
2012-10-26,67.3,58.6,48.6,57.6,50.8,46.7,95,77,55,30.11,29.93,9,3,15,0.00
2012-10-27,48.7,47.0,45.4,48.1,46.3,43.7,99,97,92,30.08,29.98,8,2,18,0.93
2012-10-28,45.9,43.4,41.1,44.0,42.4,40.6,99,96,92,30.05,29.89,10,3,21,0.59
2012-10-29,42.9,41.8,40.8,42.6,41.3,40.1,100,98,97,29.89,29.27,14,5,26,0.86
2012-10-30,49.7,44.6,41.5,49.7,44.2,40.9,100,98,91,29.34,29.07,12,3,26,0.56
2012-10-31,43.1,41.9,40.7,43.0,41.6,40.2,100,99,98,29.43,29.34,12,4,20,0.22
2012-11-1,42.2,40.2,37.9,41.7,39.8,36.9,100,98,93,29.74,29.60,12,4,20,0.15
2012-11-2,41.6,39.4,37.7,37.9,35.2,31.6,97,85,72,30.00,29.72,12,3,20,0.00
2012-11-3,42.5,39.2,36.9,39.2,35.7,31.8,96,87,76,30.13,30.00,9,2,12,0.03
2012-11-4,40.2,37.7,35.8,36.4,32.8,30.2,95,83,72,30.15,30.10,7,1,13,0.00
2012-11-5,38.2,36.5,34.4,35.4,31.2,27.3,95,81,69,30.19,30.10,5,1,9,0.00
2012-11-6,45.9,36.6,27.6,31.0,27.8,25.1,92,72,53,30.18,30.00,7,1,10,0.00
2012-11-7,41.9,36.2,27.8,30.9,28.2,25.0,89,73,61,30.09,29.99,5,1,8,0.00
2012-11-8,45.6,34.1,25.8,35.2,29.5,23.7,96,84,64,30.20,30.09,8,1,12,0.01
2012-11-9,52.4,39.6,28.7,40.9,35.0,27.6,98,84,63,30.26,30.16,11,2,13,0.01
2012-11-10,63.1,52.3,43.3,47.7,43.8,38.3,97,75,51,30.23,30.12,10,3,15,0.08
2012-11-11,68.6,60.9,53.7,44.9,40.3,37.7,58,47,36,30.28,30.09,12,5,20,0.00
2012-11-12,66.0,54.3,35.3,56.5,45.1,28.7,96,73,41,30.31,29.91,16,6,27,0.40
2012-11-13,35.3,33.8,31.6,31.4,28.2,25.2,90,80,73,30.56,30.31,11,2,20,0.00
2012-11-14,38.8,34.3,28.7,30.6,28.3,26.0,90,79,66,30.60,30.42,6,1,9,0.00
2012-11-15,45.1,33.9,26.1,32.6,28.6,24.1,95,82,56,30.42,30.32,6,1,8,0.01
2012-11-16,49.4,36.2,27.1,39.1,31.8,26.1,99,85,56,30.52,30.35,6,1,9,0.00
2012-11-17,53.9,37.0,26.1,39.5,31.7,25.4,99,83,48,30.63,30.52,5,0,6,0.01
2012-11-18,54.9,40.2,28.9,36.6,32.2,27.1,95,75,45,30.56,30.44,9,1,12,0.00
2012-11-19,52.1,40.0,29.4,39.3,34.1,27.9,98,81,60,30.44,30.21,7,0,10,0.00
2012-11-20,51.6,41.0,33.2,40.5,36.7,31.8,97,85,63,30.21,30.09,5,0,7,0.00
2012-11-21,58.2,42.1,32.2,41.0,33.7,27.9,100,76,35,30.24,30.14,6,0,7,0.00
2012-11-22,61.2,45.9,30.4,44.2,35.6,28.1,94,69,48,30.22,29.97,11,2,16,0.00
2012-11-23,55.3,45.3,31.2,47.6,35.8,26.1,89,70,43,29.97,29.73,17,7,29,0.01
2012-11-24,32.8,31.3,29.3,29.7,27.0,23.4,93,84,74,30.08,29.94,13,6,23,0.00
2012-11-25,38.8,32.2,27.0,29.5,25.7,22.8,95,77,61,30.06,29.86,11,3,20,0.04
2012-11-26,42.9,36.0,28.8,31.4,29.8,26.8,95,79,59,30.24,29.99,10,2,15,0.01
2012-11-27,36.8,32.5,25.4,31.4,27.1,22.6,94,81,62,30.32,30.23,5,1,8,0.00
2012-11-28,38.5,31.8,25.4,27.3,25.2,22.6,92,77,59,30.35,30.26,12,3,20,0.00
2012-11-29,46.1,35.0,27.9,29.8,25.3,22.8,89,70,40,30.38,30.26,11,2,18,0.00
2012-11-30,51.0,40.3,30.6,34.5,30.4,24.4,85,68,51,30.29,30.14,7,1,13,0.00
2012-12-1,57.4,45.9,32.1,44.8,38.8,29.5,94,77,62,30.30,30.16,10,3,20,0.00
2012-12-2,53.7,52.4,50.6,53.7,49.4,42.8,100,90,73,30.17,29.97,12,4,20,0.63
2012-12-3,59.4,55.9,52.6,58.1,55.3,52.6,100,98,94,30.17,30.07,9,3,16,0.00
2012-12-4,61.3,55.1,41.3,57.0,52.0,40.5,98,89,77,30.08,29.90,12,4,20,0.61
2012-12-5,41.3,36.1,33.0,40.5,32.3,26.6,99,87,70,30.37,30.08,9,2,18,0.01
2012-12-6,43.1,34.0,25.3,30.2,27.2,23.0,95,77,58,30.37,30.02,9,1,12,0.00
2012-12-7,46.4,43.3,39.7,46.4,41.8,29.7,100,95,66,30.02,29.87,6,1,12,0.40
2012-12-8,51.7,46.5,36.8,49.9,45.2,34.8,100,95,88,30.11,29.77,8,3,15,0.08
2012-12-9,54.8,42.6,35.5,54.5,40.4,33.0,100,92,81,30.15,29.68,11,3,15,0.26
2012-12-10,55.1,45.0,35.2,55.1,44.5,34.6,100,98,95,29.80,29.57,9,2,17,0.79
2012-12-11,37.9,34.1,30.1,34.6,30.9,26.8,99,88,72,30.22,29.80,9,2,14,0.01
2012-12-12,40.5,31.1,25.8,29.7,25.9,23.5,92,82,58,30.45,30.22,8,2,12,0.00
2012-12-13,44.2,31.8,22.1,30.8,24.4,20.9,98,76,44,30.46,30.26,8,1,12,0.01
2012-12-14,46.9,36.6,31.1,33.4,28.6,23.2,91,74,56,30.28,30.21,7,2,12,0.00
2012-12-15,46.0,39.1,28.9,37.0,30.9,26.8,94,74,53,30.22,29.83,8,2,14,0.01
2012-12-16,56.8,52.2,45.8,52.2,45.8,34.3,98,79,63,29.84,29.64,10,4,17,0.10
2012-12-17,50.0,45.9,42.2,49.2,44.4,40.2,99,94,88,29.73,29.50,5,1,8,0.00
2012-12-18,42.3,37.9,33.4,41.3,35.6,30.9,100,91,73,29.80,29.49,11,3,20,0.34
2012-12-19,42.6,37.3,31.3,39.8,36.0,30.5,99,95,86,30.16,29.76,7,1,12,0.05
2012-12-20,45.7,40.0,32.8,44.3,37.3,32.6,100,90,74,30.14,29.30,23,5,33,0.47
2012-12-21,40.1,32.5,29.3,34.7,30.2,28.6,99,92,75,29.69,29.28,17,7,29,0.08
2012-12-22,31.6,30.1,28.4,29.2,26.2,24.1,99,86,78,30.08,29.69,16,6,33,0.04
2012-12-23,36.0,27.4,20.7,26.6,23.1,19.0,95,84,63,30.06,29.91,8,2,12,0.01
2012-12-24,35.7,28.9,20.7,31.4,26.2,19.5,98,90,74,30.03,29.81,9,1,12,0.00
2012-12-25,35.5,32.9,31.4,32.0,30.1,25.3,98,90,77,30.25,29.92,6,1,9,0.03
2012-12-26,31.6,28.8,26.1,28.9,25.8,23.1,97,89,76,30.23,29.67,10,3,20,0.79
2012-12-27,32.4,29.0,25.4,30.9,27.0,23.9,98,92,85,30.14,29.67,10,3,15,0.00
2012-12-28,32.0,27.0,20.5,26.0,23.1,18.3,94,85,73,30.18,29.94,7,1,12,0.01
2012-12-29,32.3,28.4,24.7,30.5,26.8,22.2,97,93,88,29.96,29.70,8,2,15,0.27
2012-12-30,29.6,26.2,20.1,28.0,23.8,17.6,96,90,85,30.35,29.96,13,5,21,0.03
2012-12-31,33.9,27.7,19.9,32.0,24.7,17.5,100,89,72,30.31,30.01,13,5,21,0.03
2013-1-1,32.3,27.1,19.2,30.8,23.7,14.5,95,87,77,30.10,30.00,7,2,12,0.05